Terminal Aerodrome Forecast
Issued by NWS Shreveport, LA

Home | Current Version | Previous Version | Text Only | Print | Product List | Glossary On
Versions: 1 2 3 4 5 6 7 8 9 10 11 12
512
FTUS44 KSHV 240520
TAFMLU
TAF
KMLU 240520Z 2406/2506 00000KT P6SM SKC
      TEMPO 2411/2415 5SM BR BKN025
     FM241500 18007KT P6SM FEW030 SCT250
     FM250000 17005KT P6SM SCT100=

USA.gov is the U.S. government's official web portal to all federal, state and local government web resources and services.